Aeroporto :
LOGIN :

Iscrizione | Disclaimer

   EN    FR    IT 

 










Sommario :    VFR   VFR Marginale   IFR   IFR Intensivo   IFR Molto Intensivo
Visibilità : 
Base nubi : 
>= 8 km
>= 3000ft
5 / 8 km
1000 / 3000 ft
1500m / 5 km
500 / 1000 ft
800 / 1500m
200 / 500 ft
< 800m
< 200 ft
Simboli :   Temporali  Nebbia  Neve Forte  Precipitazioni Forti  Vento > 20 kt
SIGMETs :   Varie  Temporali  Ghiacco  Turbolenza  Onda orograficha  Ceneri Vulcaniche






- Altitudine del aeroporto : 529 ft
- Codice IATA : CHR


LFLX - Chateauroux

ULTIMO METAR :
  • 230830Z AUTO 24008KT 210V270 9999 BKN018/// BKN024/// BKN029/// ///CB 16/12 Q1018 TEMPO 4000 -SHRA

METARs OBSOLETI :
  • 230800Z AUTO 24007KT 200V260 9999 FEW015/// BKN025/// OVC088/// 15/12 Q1018
  • 230730Z AUTO 24008KT 9999 BKN012 BKN086 14/11 Q1018 TEMPO 4000 -SHRA BKN030TCU
  • 230700Z AUTO 24006KT 9999 BKN007 OVC084 14/12 Q1018 BECMG SCT025
  • 230630Z AUTO 23008KT 9999 OVC007 13/12 Q1018 BECMG SCT025
  • 230600Z AUTO 23008KT 9999 OVC005 12/12 Q1018 TEMPO 0800 FG BECMG SCT025
  • 230530Z AUTO 23006KT 200V260 9999 OVC005 12/12 Q1017 TEMPO 0800 FG BECMG SCT025
  • 230500Z AUTO 23008KT 9999 BKN004 OVC096 12/11 Q1017 TEMPO 3000 BR VV///
  • 230430Z AUTO 23005KT 9999 FEW004 BKN096 OVC130 12/11 Q1017 TEMPO 3000 BR VV///
  • 230400Z AUTO 24008KT 9999 BKN005 BKN070 OVC096 12/11 Q1017 TEMPO 0500 FG VV///

TAF TAF LFLX
Valido dal 23 a 06 ore il 24 a 12 ore UTC


230500Z 2306/2412 23005KT 9999 SCT005
PROB30
TEMPO 2306/2307 0800 FG BKN002
BECMG 2306/2308 SCT025
TEMPO 2309/2320 4000 -SHRA BKN030TCU
PROB40
TEMPO 2312/2320 2000 -TSRA BKN030CB
TEMPO 2402/2408 4000 BR BKN004
BECMG 2406/2408 BKN020



MetMap, La meteo Aeronautica in un colpo d'occhio ! - Copyright ORBIFLY Dicembre 2007 - Disclaimer

ORBIFLY MET'MAP TEAM :

Programmazione e sviluppo : Alexandra Zaïnal
Concezione : Baudouin d'Aumeries
Supporto tecnico e logistico : Manuel Goepfert
Aiuto : Marc-Olivier Méhu
Aiuto per la traduzione : Arnaldo La Scala




FONTI E CREDITI :

   NOAA